Time;durP1;ratioP1;P1;durP2;ratioP2;P2;SDS_P1;SDS_P2;PMS_P1;PMS_P2;Temp;Humidity;BMP_temperature;BMP_pressure;BME280_temperature;BME280_humidity;BME280_pressure;Samples;Min_cycle;Max_cycle;Signal;HPM_P1;HPM_P2
2023/12/25 00:01:08;;;;;;;13.67;6.63;;;;;;;11.13;65.90;94471.53;5053034;28;20274;-73
2023/12/25 00:03:35;;;;;;;18.83;6.47;;;;;;;11.11;65.84;94474.25;5054030;28;20183;-75
2023/12/25 00:06:02;;;;;;;11.17;6.70;;;;;;;11.09;65.82;94460.00;5052649;28;20300;-75
2023/12/25 00:08:29;;;;;;;14.20;7.50;;;;;;;10.91;66.12;94440.31;5053280;28;20187;-73
2023/12/25 00:10:55;;;;;;;15.00;7.30;;;;;;;11.04;66.16;94455.31;5053719;28;20214;-74
2023/12/25 00:13:22;;;;;;;9.30;6.43;;;;;;;11.02;65.98;94452.09;5052634;28;20703;-75
2023/12/25 00:15:49;;;;;;;12.17;6.93;;;;;;;11.00;66.22;94457.34;5052387;28;20785;-74
2023/12/25 00:18:17;;;;;;;11.20;6.77;;;;;;;10.70;66.20;94409.91;5052153;28;20696;-73
2023/12/25 00:20:44;;;;;;;11.07;7.00;;;;;;;10.74;66.34;94412.97;5052715;28;20187;-69
2023/12/25 00:23:11;;;;;;;14.60;7.47;;;;;;;10.96;66.39;94443.25;5052166;28;20194;-76
2023/12/25 00:25:38;;;;;;;12.77;7.70;;;;;;;10.93;66.44;94451.22;5052536;28;20187;-74
2023/12/25 00:28:05;;;;;;;11.53;7.60;;;;;;;10.92;66.40;94444.47;5051906;28;20221;-77
2023/12/25 00:30:32;;;;;;;13.70;8.17;;;;;;;10.91;66.62;94434.41;5051782;28;20579;-75
2023/12/25 00:32:59;;;;;;;15.90;7.83;;;;;;;10.82;66.63;94436.09;5052038;28;20187;-74
2023/12/25 00:35:27;;;;;;;15.47;8.10;;;;;;;10.87;66.67;94445.88;5052433;28;20187;-75
2023/12/25 00:37:54;;;;;;;12.53;7.90;;;;;;;10.71;66.64;94419.22;5051954;28;20190;-76
2023/12/25 00:40:20;;;;;;;13.70;8.70;;;;;;;10.84;66.66;94443.59;5051972;28;20198;-76
2023/12/25 00:42:47;;;;;;;16.70;8.30;;;;;;;10.82;66.73;94446.31;5051991;28;20195;-75
2023/12/25 00:45:14;;;;;;;15.73;8.47;;;;;;;10.81;66.80;94449.84;5051692;28;20191;-73
2023/12/25 00:47:41;;;;;;;12.33;8.20;;;;;;;10.52;66.76;94398.88;5051849;28;20804;-76
2023/12/25 00:50:07;;;;;;;11.50;7.50;;;;;;;10.77;67.12;94440.84;5052166;28;20184;-73
2023/12/25 00:52:35;;;;;;;14.63;8.53;;;;;;;10.77;66.95;94453.63;5052081;28;20218;-76
2023/12/25 00:55:02;;;;;;;18.63;10.03;;;;;;;10.74;67.01;94456.47;5051760;28;20652;-73
2023/12/25 00:57:29;;;;;;;14.67;9.83;;;;;;;10.72;66.84;94443.03;5051606;28;20195;-74
2023/12/25 00:59:55;;;;;;;12.93;7.87;;;;;;;10.49;67.02;94414.47;5051465;28;20230;-75
2023/12/25 01:02:22;;;;;;;18.17;8.53;;;;;;;10.50;67.00;94413.56;5052020;28;20194;-71
2023/12/25 01:04:49;;;;;;;13.17;8.83;;;;;;;10.68;67.07;94442.50;5051318;28;20738;-71
2023/12/25 01:07:16;;;;;;;14.20;8.43;;;;;;;10.67;67.19;94446.03;5051584;28;20197;-75
2023/12/25 01:09:44;;;;;;;13.30;8.30;;;;;;;10.46;67.25;94423.25;5051204;28;20190;-72
2023/12/25 01:12:11;;;;;;;12.80;8.30;;;;;;;10.49;67.19;94420.44;5051747;28;20585;-72
2023/12/25 01:14:42;;;;;;;18.03;8.67;;;;;;;10.54;67.29;94433.59;5051427;28;20191;-74
2023/12/25 01:17:09;;;;;;;15.17;9.07;;;;;;;10.44;67.62;94409.81;5051294;28;20651;-68
2023/12/25 01:19:36;;;;;;;15.80;8.90;;;;;;;10.61;67.46;94435.56;5051103;28;20769;-68
2023/12/25 01:22:03;;;;;;;16.00;8.83;;;;;;;10.51;67.22;94420.28;5051144;28;20636;-72
2023/12/25 01:24:30;;;;;;;17.70;9.23;;;;;;;10.43;67.52;94402.28;5051485;28;20205;-72
2023/12/25 01:26:58;;;;;;;14.60;9.03;;;;;;;10.55;67.55;94431.81;5051198;28;20191;-70
2023/12/25 01:29:25;;;;;;;14.90;9.50;;;;;;;10.59;67.55;94429.78;5051006;28;20191;-70
2023/12/25 01:31:51;;;;;;;14.23;8.60;;;;;;;10.59;67.50;94432.34;5051121;28;20222;-71
2023/12/25 01:34:18;;;;;;;11.23;8.27;;;;;;;10.59;67.63;94432.34;5051094;28;20198;-71
2023/12/25 01:36:45;;;;;;;15.80;8.80;;;;;;;10.58;67.65;94436.66;5051247;28;20194;-68
2023/12/25 01:39:12;;;;;;;12.97;8.67;;;;;;;10.58;67.94;94428.16;5051381;28;20197;-73
2023/12/25 01:41:39;;;;;;;14.50;8.87;;;;;;;10.30;67.84;94389.84;5050909;28;20226;-73
2023/12/25 01:44:07;;;;;;;13.57;8.40;;;;;;;10.55;67.84;94426.72;5050554;28;20202;-71
2023/12/25 01:46:35;;;;;;;13.97;8.23;;;;;;;10.54;67.88;94431.03;5050421;28;20195;-68
2023/12/25 01:49:02;;;;;;;17.40;9.30;;;;;;;10.46;67.81;94438.59;5050692;28;20711;-69
2023/12/25 01:51:29;;;;;;;14.87;9.43;;;;;;;10.51;67.95;94422.84;5050454;28;20726;-71
2023/12/25 01:53:55;;;;;;;14.67;9.33;;;;;;;10.50;67.95;94426.34;5051750;28;20187;-74
2023/12/25 01:56:22;;;;;;;14.00;8.80;;;;;;;10.33;67.90;94399.00;5050517;28;20179;-68
2023/12/25 01:58:49;;;;;;;12.53;8.50;;;;;;;9.98;68.04;94352.75;5050684;28;20191;-68
2023/12/25 02:01:17;;;;;;;15.80;9.67;;;;;;;10.20;68.09;94396.75;5050189;28;20630;-72
2023/12/25 02:03:45;;;;;;;16.63;8.87;;;;;;;10.43;68.01;94435.53;5050476;28;20194;-74
2023/12/25 02:06:13;;;;;;;16.00;9.83;;;;;;;10.42;67.99;94449.25;5050286;28;20636;-69
2023/12/25 02:08:40;;;;;;;13.40;8.93;;;;;;;10.41;68.05;94440.00;5050284;28;20190;-69
2023/12/25 02:11:07;;;;;;;16.70;9.17;;;;;;;10.39;68.18;94435.00;5050583;28;20199;-69
2023/12/25 02:13:43;;;;;;;18.30;9.37;;;;;;;10.32;68.18;94426.31;5050861;28;20691;-73
2023/12/25 02:16:10;;;;;;;15.87;8.93;;;;;;;10.35;68.38;94432.88;5050882;28;20240;-69
2023/12/25 02:18:39;;;;;;;20.87;10.00;;;;;;;10.34;68.18;94444.84;5059777;28;20726;-69
2023/12/25 02:21:06;;;;;;;16.27;9.27;;;;;;;10.33;68.37;94427.13;5050405;28;20198;-74
2023/12/25 02:23:37;;;;;;;14.37;8.80;;;;;;;10.30;68.31;94421.31;5050148;28;20183;-70
2023/12/25 02:26:06;;;;;;;16.53;9.87;;;;;;;10.30;68.38;94430.75;5050136;28;20258;-71
2023/12/25 02:28:33;;;;;;;13.83;9.60;;;;;;;10.20;68.31;94420.56;5049880;28;20199;-71
2023/12/25 02:31:00;;;;;;;14.60;9.33;;;;;;;10.26;68.43;94429.41;5050272;28;20194;-68
2023/12/25 02:33:27;;;;;;;15.33;9.60;;;;;;;10.02;68.49;94394.94;5049728;28;20249;-69
2023/12/25 02:35:54;;;;;;;14.90;8.53;;;;;;;10.09;68.62;94417.38;5050080;28;20268;-70
2023/12/25 02:38:20;;;;;;;16.57;9.63;;;;;;;10.20;68.62;94427.41;5049807;28;20284;-71
2023/12/25 02:40:47;;;;;;;18.70;9.67;;;;;;;10.21;68.71;94434.94;5050119;28;20183;-69
2023/12/25 02:43:15;;;;;;;13.23;8.97;;;;;;;10.20;68.60;94425.66;5049863;28;20248;-70
2023/12/25 02:45:42;;;;;;;15.33;8.90;;;;;;;10.03;68.64;94390.66;5049480;28;20938;-69
2023/12/25 02:48:09;;;;;;;12.20;8.47;;;;;;;10.20;68.70;94427.41;5049999;28;20682;-69
2023/12/25 02:50:35;;;;;;;15.00;8.80;;;;;;;10.18;68.75;94437.75;5049260;28;20190;-70
2023/12/25 02:53:03;;;;;;;12.53;8.27;;;;;;;10.15;68.72;94425.28;5049935;28;20222;-70
2023/12/25 02:55:30;;;;;;;13.63;8.03;;;;;;;10.17;68.74;94433.59;5049458;28;20194;-73
2023/12/25 02:57:57;;;;;;;16.63;8.27;;;;;;;9.86;68.80;94392.19;5049639;28;20202;-70
2023/12/25 03:00:25;;;;;;;14.10;8.80;;;;;;;10.16;68.84;94457.53;5049760;28;20195;-72
2023/12/25 03:02:52;;;;;;;14.67;8.53;;;;;;;10.07;68.93;94425.19;5049585;28;20256;-73
2023/12/25 03:05:19;;;;;;;13.37;8.57;;;;;;;10.13;69.02;94441.69;5049303;28;20209;-72
2023/12/25 03:07:45;;;;;;;13.23;7.40;;;;;;;10.05;68.75;94448.28;5049632;28;20191;-72
2023/12/25 03:10:12;;;;;;;13.07;8.03;;;;;;;9.79;69.00;94397.03;5049267;28;20256;-71
2023/12/25 03:12:39;;;;;;;18.27;8.33;;;;;;;10.11;68.86;94456.38;5049524;28;20227;-71
2023/12/25 03:15:06;;;;;;;12.80;8.10;;;;;;;10.10;69.04;94463.19;5049215;28;20187;-72
2023/12/25 03:17:35;;;;;;;17.90;8.20;;;;;;;10.01;69.09;94453.81;5049500;28;20195;-72
2023/12/25 03:20:03;;;;;;;16.30;8.27;;;;;;;10.08;69.11;94444.66;5049290;28;20607;-73
2023/12/25 03:22:29;;;;;;;13.87;7.90;;;;;;;10.09;69.13;94478.69;5049857;28;20187;-73
2023/12/25 03:24:56;;;;;;;13.53;7.47;;;;;;;10.07;69.13;94478.84;5049767;28;20591;-69
2023/12/25 03:27:23;;;;;;;14.57;7.63;;;;;;;10.05;69.06;94466.19;5053661;28;20191;-69
2023/12/25 03:29:50;;;;;;;11.40;7.17;;;;;;;10.04;69.20;94464.56;5060322;28;20191;-70
2023/12/25 03:32:19;;;;;;;15.33;7.53;;;;;;;10.02;69.11;94476.69;5054909;28;20683;-74
2023/12/25 03:34:48;;;;;;;16.23;8.10;;;;;;;9.99;69.18;94487.19;5053678;28;20244;-70
2023/12/25 03:37:15;;;;;;;15.13;8.47;;;;;;;10.01;69.24;94476.81;5052843;28;20675;-69
2023/12/25 03:39:41;;;;;;;14.23;6.80;;;;;;;9.91;69.11;94463.28;5053318;28;20184;-69
2023/12/25 03:42:08;;;;;;;14.23;7.47;;;;;;;9.98;69.30;94472.81;5053104;28;20187;-68
2023/12/25 03:44:35;;;;;;;14.87;7.50;;;;;;;9.99;69.28;94486.38;5053204;28;20191;-68
2023/12/25 03:47:02;;;;;;;14.77;7.87;;;;;;;9.97;69.28;94468.66;5053086;28;20187;-68
2023/12/25 03:49:29;;;;;;;13.27;7.70;;;;;;;9.62;69.21;94430.97;5053293;28;20567;-69
2023/12/25 03:51:58;;;;;;;16.60;9.63;;;;;;;9.96;69.25;94504.53;5052485;28;20618;-71
2023/12/25 03:54:24;;;;;;;14.17;8.00;;;;;;;9.77;69.19;94473.00;5052699;28;20194;-69
2023/12/25 03:56:51;;;;;;;11.27;7.60;;;;;;;9.90;69.42;94513.56;5052920;28;20205;-72
2023/12/25 03:59:18;;;;;;;14.70;8.53;;;;;;;9.93;69.45;94497.13;5052493;28;20187;-72
2023/12/25 04:01:45;;;;;;;14.83;8.47;;;;;;;9.92;69.41;94496.34;5052725;28;20194;-69
2023/12/25 04:04:12;;;;;;;16.07;8.47;;;;;;;9.91;69.46;94507.50;5052583;28;20199;-73
2023/12/25 04:06:39;;;;;;;12.13;7.50;;;;;;;9.85;69.40;94489.38;5052575;28;20664;-75
2023/12/25 04:09:07;;;;;;;17.83;8.33;;;;;;;9.91;69.52;94504.16;5052680;28;20599;-76
2023/12/25 04:11:33;;;;;;;12.10;7.20;;;;;;;9.73;69.55;94493.84;5052412;28;20662;-70
2023/12/25 04:14:00;;;;;;;11.00;7.97;;;;;;;9.81;69.43;94499.06;5052682;28;20245;-73
2023/12/25 04:16:28;;;;;;;11.27;7.70;;;;;;;9.89;69.55;94516.28;5052435;28;20198;-71
2023/12/25 04:18:55;;;;;;;13.13;7.77;;;;;;;9.90;69.55;94522.97;5052341;28;20292;-69
2023/12/25 04:21:24;;;;;;;14.13;7.60;;;;;;;9.89;69.59;94506.84;5052427;28;20195;-71
2023/12/25 04:23:51;;;;;;;13.43;7.23;;;;;;;9.48;69.49;94452.63;5052261;28;20202;-75
2023/12/25 04:26:20;;;;;;;10.97;6.67;;;;;;;9.88;69.48;94515.44;5052662;28;20248;-72
2023/12/25 04:28:47;;;;;;;11.47;7.03;;;;;;;9.88;69.46;94500.09;5052235;28;20222;-78
2023/12/25 04:31:14;;;;;;;11.47;6.80;;;;;;;9.71;69.58;94481.19;5052329;28;20207;-76
2023/12/25 04:33:41;;;;;;;15.60;7.27;;;;;;;9.88;69.60;94504.41;5052255;28;20226;-75
2023/12/25 04:36:08;;;;;;;10.40;6.50;;;;;;;9.87;69.59;94502.81;5052385;28;20198;-76
2023/12/25 04:38:36;;;;;;;9.97;6.47;;;;;;;9.86;69.60;94499.47;5051830;28;20198;-74
2023/12/25 04:41:02;;;;;;;12.73;6.77;;;;;;;9.87;69.63;94500.25;5051989;28;20235;-73
2023/12/25 04:43:31;;;;;;;11.03;7.20;;;;;;;9.86;69.56;94502.00;5052204;28;20194;-71
2023/12/25 04:45:58;;;;;;;11.60;6.90;;;;;;;9.74;69.64;94488.59;5052075;28;20195;-71
2023/12/25 04:48:24;;;;;;;9.80;6.50;;;;;;;9.79;69.54;94494.09;5052693;28;20252;-76
2023/12/25 04:50:51;;;;;;;12.07;6.23;;;;;;;9.87;69.63;94502.81;5052774;28;20190;-73
2023/12/25 04:53:18;;;;;;;10.77;6.77;;;;;;;9.86;69.49;94516.53;5056460;28;20222;-73
2023/12/25 04:55:45;;;;;;;12.03;5.80;;;;;;;9.86;69.59;94517.34;5064182;28;20198;-72
2023/12/25 04:58:11;;;;;;;8.63;5.80;;;;;;;9.87;69.69;94506.16;5061074;28;20191;-75
2023/12/25 05:00:39;;;;;;;10.20;6.03;;;;;;;9.79;69.65;94503.50;5052062;28;20199;-70
2023/12/25 05:03:06;;;;;;;8.37;5.67;;;;;;;9.80;69.66;94498.28;5051513;28;20202;-72
2023/12/25 05:05:33;;;;;;;8.97;6.30;;;;;;;9.84;69.63;94508.19;5051534;28;20190;-75
2023/12/25 05:08:00;;;;;;;16.93;7.00;;;;;;;9.89;69.55;94511.97;5051541;28;20187;-76
2023/12/25 05:10:26;;;;;;;9.03;6.10;;;;;;;9.73;69.65;94481.06;5051799;28;20195;-74
2023/12/25 05:12:53;;;;;;;10.50;6.10;;;;;;;9.91;69.52;94499.03;5051124;28;20306;-70
2023/12/25 05:15:20;;;;;;;9.93;5.90;;;;;;;9.91;69.69;94504.16;5051424;28;20199;-71
2023/12/25 05:17:48;;;;;;;9.37;5.87;;;;;;;9.66;69.78;94468.03;5051537;28;20187;-74
2023/12/25 05:20:15;;;;;;;10.33;5.87;;;;;;;9.79;69.59;94506.06;5051664;28;20195;-75
2023/12/25 05:22:42;;;;;;;7.57;5.60;;;;;;;9.92;69.53;94541.50;5050923;28;20203;-79
2023/12/25 05:25:09;;;;;;;10.13;5.70;;;;;;;9.93;69.46;94522.69;5051132;28;20191;-74
2023/12/25 05:27:35;;;;;;;9.00;5.10;;;;;;;9.89;69.45;94532.41;5050795;28;20202;-74
2023/12/25 05:30:02;;;;;;;9.00;5.77;;;;;;;9.91;69.62;94511.81;5051161;28;20195;-70
2023/12/25 05:32:30;;;;;;;9.10;6.33;;;;;;;9.91;69.57;94540.72;5050791;28;20218;-75
2023/12/25 05:34:58;;;;;;;12.47;6.23;;;;;;;9.90;69.63;94523.78;5051054;28;20194;-73
2023/12/25 05:37:25;;;;;;;9.33;5.43;;;;;;;9.52;69.57;94468.47;5050947;28;20180;-75
2023/12/25 05:39:52;;;;;;;8.53;5.30;;;;;;;9.89;69.50;94534.94;5051068;28;20190;-74
2023/12/25 05:42:19;;;;;;;15.77;5.77;;;;;;;9.89;69.43;94517.06;5050728;28;20213;-70
2023/12/25 05:44:46;;;;;;;9.30;6.07;;;;;;;9.59;69.49;94476.41;5050731;28;20195;-73
2023/12/25 05:47:13;;;;;;;6.97;5.07;;;;;;;9.89;69.63;94542.63;5050551;28;20195;-71
2023/12/25 05:49:40;;;;;;;10.73;5.27;;;;;;;9.89;69.72;94523.94;5050501;28;20198;-70
2023/12/25 05:52:08;;;;;;;11.93;5.73;;;;;;;9.84;69.90;94529.41;5050108;28;20187;-73
2023/12/25 05:54:35;;;;;;;7.53;5.27;;;;;;;9.76;69.59;94503.78;5050360;28;20580;-71
2023/12/25 05:57:01;;;;;;;8.23;5.43;;;;;;;9.83;69.49;94516.81;5050516;28;20592;-71
2023/12/25 05:59:28;;;;;;;8.00;5.40;;;;;;;9.88;69.52;94512.88;5050121;28;20636;-69
2023/12/25 06:01:55;;;;;;;11.17;5.13;;;;;;;9.89;69.67;94519.63;5050120;28;20198;-68
2023/12/25 06:04:22;;;;;;;11.57;5.73;;;;;;;9.91;69.49;94522.03;5050260;28;20191;-69
2023/12/25 06:06:48;;;;;;;11.40;6.27;;;;;;;9.91;69.61;94511.81;5050027;28;20575;-69
2023/12/25 06:09:17;;;;;;;8.40;4.90;;;;;;;9.91;69.53;94527.13;5049897;28;20645;-69
2023/12/25 06:11:43;;;;;;;9.67;5.20;;;;;;;9.88;69.48;94537.63;5050489;28;20191;-70
2023/12/25 06:14:10;;;;;;;7.80;5.07;;;;;;;9.93;69.56;94553.34;5049755;28;20219;-69
2023/12/25 06:16:37;;;;;;;6.43;4.90;;;;;;;9.95;69.55;94572.69;5049722;28;20187;-69
2023/12/25 06:19:04;;;;;;;9.30;5.17;;;;;;;9.98;69.52;94566.53;5049960;28;20222;-72
2023/12/25 06:21:30;;;;;;;8.90;4.93;;;;;;;9.97;69.32;94572.56;5049726;28;20278;-73
2023/12/25 06:23:56;;;;;;;11.67;5.00;;;;;;;10.04;69.34;94592.31;5050321;28;20273;-71
2023/12/25 06:26:24;;;;;;;8.97;4.50;;;;;;;10.13;69.33;94607.78;5050206;28;20187;-70
2023/12/25 06:28:51;;;;;;;9.27;5.30;;;;;;;10.16;68.95;94587.06;5050147;28;20187;-73
2023/12/25 06:31:18;;;;;;;9.30;4.83;;;;;;;10.58;68.71;94596.91;5049574;28;20197;-73
2023/12/25 06:33:45;;;;;;;9.87;4.67;;;;;;;10.86;68.60;94601.13;5049778;28;20231;-69
2023/12/25 06:36:12;;;;;;;12.17;4.83;;;;;;;11.01;68.39;94551.09;5049418;28;20221;-72
2023/12/25 06:38:39;;;;;;;5.70;4.00;;;;;;;11.58;68.58;94573.88;5049578;28;20201;-71
2023/12/25 06:41:05;;;;;;;12.00;5.07;;;;;;;12.00;68.61;94558.72;5049698;28;20260;-68
2023/12/25 06:43:34;;;;;;;11.80;4.90;;;;;;;12.45;68.95;94557.72;5049591;28;20194;-72
2023/12/25 06:46:00;;;;;;;8.53;4.70;;;;;;;12.88;68.75;94550.06;5049585;28;20217;-74
2023/12/25 06:48:27;;;;;;;7.53;4.30;;;;;;;13.44;68.23;94564.03;5049992;28;20190;-71
2023/12/25 06:50:54;;;;;;;7.27;4.43;;;;;;;13.96;67.81;94574.03;5049695;28;20564;-72
2023/12/25 06:53:21;;;;;;;9.37;5.10;;;;;;;14.28;67.55;94553.41;5049408;28;20230;-70
2023/12/25 06:55:48;;;;;;;6.40;3.93;;;;;;;14.98;66.77;94609.41;5050109;28;20191;-69
2023/12/25 06:58:15;;;;;;;9.93;4.30;;;;;;;15.49;66.17;94601.25;5049143;28;20191;-74
2023/12/25 07:00:43;;;;;;;8.33;4.83;;;;;;;15.98;65.41;94588.09;5049594;28;20816;-72
2023/12/25 07:03:10;;;;;;;7.07;4.93;;;;;;;16.46;64.24;94594.59;5049414;28;20613;-70
2023/12/25 07:05:37;;;;;;;10.07;4.57;;;;;;;16.92;63.51;94606.56;5049553;28;20258;-70
2023/12/25 07:08:04;;;;;;;10.50;4.70;;;;;;;17.37;62.51;94597.81;5049304;28;20187;-73
2023/12/25 07:10:31;;;;;;;9.97;4.90;;;;;;;17.82;61.82;94595.09;5049545;28;20187;-75
2023/12/25 07:12:58;;;;;;;7.87;4.63;;;;;;;18.20;60.83;94593.84;5049364;28;20218;-70
2023/12/25 07:15:25;;;;;;;7.40;4.10;;;;;;;18.69;60.11;94602.56;5049421;28;20198;-68
2023/12/25 07:17:53;;;;;;;8.90;4.30;;;;;;;18.88;59.02;94583.00;5048509;28;20201;-75
2023/12/25 07:20:21;;;;;;;6.90;4.57;;;;;;;19.49;58.41;94609.78;5049326;28;20216;-72
2023/12/25 07:22:48;;;;;;;7.63;4.57;;;;;;;19.89;57.42;94609.09;5049013;28;20289;-71
2023/12/25 07:25:14;;;;;;;6.13;4.47;;;;;;;20.23;56.78;94606.34;5049821;28;20202;-72
2023/12/25 07:27:41;;;;;;;8.10;3.92;;;;;;;20.60;56.10;94612.00;5050641;28;20194;-75
2023/12/25 07:30:09;;;;;;;7.57;4.22;;;;;;;20.89;55.19;94615.13;5050800;28;20191;-70
2023/12/25 07:32:36;;;;;;;7.18;4.10;;;;;;;21.24;54.26;94615.63;5056373;28;20195;-72
2023/12/25 07:35:04;;;;;;;7.88;4.32;;;;;;;21.54;53.60;94615.94;5056669;28;20214;-76
2023/12/25 07:37:31;;;;;;;4.97;4.00;;;;;;;21.81;53.17;94613.22;5050480;28;20187;-76
2023/12/25 07:39:58;;;;;;;5.60;4.30;;;;;;;22.03;52.22;94623.09;5049742;28;20428;-68
2023/12/25 07:42:24;;;;;;;6.57;4.07;;;;;;;22.19;51.86;94628.81;5049527;28;20201;-73
2023/12/25 07:44:51;;;;;;;7.10;3.60;;;;;;;22.12;51.75;94621.06;5049407;28;20191;-73
2023/12/25 07:47:18;;;;;;;5.70;4.10;;;;;;;22.04;51.39;94632.50;5049306;28;20187;-71
2023/12/25 07:49:45;;;;;;;5.28;4.35;;;;;;;21.93;51.32;94642.78;5049243;28;20596;-73
2023/12/25 07:52:13;;;;;;;7.85;4.53;;;;;;;21.68;51.26;94643.53;5050441;28;20190;-72
2023/12/25 07:54:40;;;;;;;6.38;4.32;;;;;;;21.47;51.69;94644.63;5050075;28;20700;-72
2023/12/25 07:57:07;;;;;;;9.10;4.95;;;;;;;21.14;51.66;94636.06;5054937;28;20184;-70
2023/12/25 07:59:34;;;;;;;8.57;4.50;;;;;;;20.93;51.73;94644.91;5054890;28;20294;-71
2023/12/25 08:02:01;;;;;;;10.32;4.68;;;;;;;20.69;51.75;94643.75;5049911;28;20202;-73
2023/12/25 08:04:27;;;;;;;5.40;4.13;;;;;;;20.42;51.89;94628.16;5048951;28;20184;-74
2023/12/25 08:06:54;;;;;;;7.30;4.00;;;;;;;20.40;51.77;94618.94;5048709;28;20660;-71
2023/12/25 08:09:22;;;;;;;4.88;3.92;;;;;;;20.15;51.32;94583.19;5049038;28;20194;-75
2023/12/25 08:11:51;;;;;;;5.97;4.13;;;;;;;20.16;51.58;94626.31;5048706;28;20191;-77
2023/12/25 08:14:18;;;;;;;6.68;4.15;;;;;;;19.90;51.49;94627.06;5050388;28;20226;-70
2023/12/25 08:16:45;;;;;;;8.00;4.57;;;;;;;19.69;51.69;94627.22;5051960;28;20198;-71
2023/12/25 08:19:12;;;;;;;6.55;3.78;;;;;;;19.55;51.81;94637.53;5052320;28;20572;-72
2023/12/25 08:21:39;;;;;;;5.93;4.28;;;;;;;19.42;51.89;94647.84;5052155;28;20661;-73
2023/12/25 08:24:06;;;;;;;6.93;4.57;;;;;;;19.27;52.02;94648.00;5052598;28;20626;-70
2023/12/25 08:26:35;;;;;;;7.53;4.47;;;;;;;19.04;51.99;94613.75;5052169;28;20300;-71
2023/12/25 08:29:02;;;;;;;7.93;4.63;;;;;;;18.91;52.19;94619.69;5052518;28;20187;-70
2023/12/25 08:31:28;;;;;;;7.03;4.10;;;;;;;18.94;52.33;94628.88;5051929;28;20193;-73
2023/12/25 08:33:54;;;;;;;5.40;4.03;;;;;;;18.99;51.85;94629.09;5052334;28;20202;-71
2023/12/25 08:36:21;;;;;;;6.90;4.43;;;;;;;19.21;51.26;94634.97;5052465;28;20579;-70
2023/12/25 08:38:49;;;;;;;8.10;4.17;;;;;;;18.89;50.72;94564.66;5052068;28;20188;-69
2023/12/25 08:41:15;;;;;;;7.57;3.90;;;;;;;19.68;50.04;94647.19;5052391;28;20184;-74
2023/12/25 08:43:44;;;;;;;8.13;4.25;;;;;;;19.54;49.93;94638.53;5052129;28;20203;-69
2023/12/25 08:46:10;;;;;;;6.07;4.20;;;;;;;19.13;50.26;94627.38;5051894;28;20195;-71
2023/12/25 08:48:37;;;;;;;9.90;4.40;;;;;;;18.84;50.53;94611.06;5051709;28;20195;-70
2023/12/25 08:51:04;;;;;;;6.03;4.10;;;;;;;18.73;50.93;94627.94;5052589;28;20249;-74
2023/12/25 08:53:31;;;;;;;4.93;3.83;;;;;;;18.20;51.24;94580.13;5051806;28;20320;-77
2023/12/25 08:56:00;;;;;;;6.90;4.00;;;;;;;18.15;51.40;94601.38;5052145;28;20194;-76
2023/12/25 08:58:27;;;;;;;5.53;3.80;;;;;;;18.13;51.61;94618.88;5051963;28;20556;-75
2023/12/25 09:00:55;;;;;;;7.27;4.67;;;;;;;17.99;51.93;94609.41;5051740;28;20278;-75
2023/12/25 09:03:22;;;;;;;6.40;3.93;;;;;;;17.76;51.94;94591.47;5051312;28;20218;-77
2023/12/25 09:05:50;;;;;;;5.60;3.90;;;;;;;17.74;52.20;94608.94;5051415;28;20183;-74
2023/12/25 09:08:17;;;;;;;4.83;3.60;;;;;;;17.64;52.25;94613.59;5051682;28;20205;-68
2023/12/25 09:10:44;;;;;;;6.10;3.77;;;;;;;17.54;52.32;94608.72;5051302;28;20671;-69
2023/12/25 09:13:10;;;;;;;6.80;4.47;;;;;;;17.46;52.42;94604.47;5051330;28;20194;-72
2023/12/25 09:15:37;;;;;;;6.40;4.03;;;;;;;17.26;52.53;94577.56;5051434;28;20195;-73
2023/12/25 09:18:05;;;;;;;5.47;4.07;;;;;;;17.35;52.63;94602.34;5051269;28;20222;-69
2023/12/25 09:20:33;;;;;;;7.00;3.90;;;;;;;17.15;52.59;94573.69;5050885;28;20195;-72
2023/12/25 09:23:00;;;;;;;7.90;4.50;;;;;;;16.73;52.61;94517.53;5051404;28;20222;-73
2023/12/25 09:25:28;;;;;;;7.50;3.87;;;;;;;17.20;52.68;94581.69;5050216;28;20274;-73
2023/12/25 09:27:55;;;;;;;7.37;3.90;;;;;;;17.14;52.73;94574.69;5051087;28;20205;-69
2023/12/25 09:30:21;;;;;;;6.70;3.60;;;;;;;17.11;52.88;94576.81;5050926;28;20199;-73
2023/12/25 09:32:48;;;;;;;7.87;3.33;;;;;;;17.09;52.67;94582.16;5050854;28;20194;-73
2023/12/25 09:35:18;;;;;;;7.23;3.93;;;;;;;17.06;52.74;94582.53;5050623;28;20368;-72
2023/12/25 09:37:44;;;;;;;7.43;4.07;;;;;;;17.03;52.80;94580.28;5050924;28;20215;-70
2023/12/25 09:40:12;;;;;;;7.00;3.87;;;;;;;17.01;52.84;94582.25;5050684;28;20191;-72
2023/12/25 09:42:39;;;;;;;7.80;3.73;;;;;;;16.99;52.84;94585.00;5051343;28;20268;-73
2023/12/25 09:45:10;;;;;;;7.63;3.93;;;;;;;16.97;52.87;94576.66;5050331;28;20187;-70
2023/12/25 09:47:38;;;;;;;6.70;3.70;;;;;;;16.97;52.95;94581.81;5050592;28;20203;-70
2023/12/25 09:50:06;;;;;;;7.13;3.97;;;;;;;16.95;52.88;94575.22;5050677;28;20190;-69
2023/12/25 09:52:34;;;;;;;6.77;4.07;;;;;;;16.87;52.82;94562.41;5050666;28;20656;-70
2023/12/25 09:55:01;;;;;;;5.77;4.07;;;;;;;16.92;52.92;94568.63;5050293;28;20219;-73
2023/12/25 09:57:30;;;;;;;6.40;3.87;;;;;;;16.93;52.91;94572.81;5051100;28;20206;-69
2023/12/25 09:59:57;;;;;;;8.83;3.70;;;;;;;16.84;52.87;94558.41;5050850;28;20679;-71
2023/12/25 10:02:28;;;;;;;4.83;3.77;;;;;;;16.94;52.71;94566.69;5050356;28;20187;-71
2023/12/25 10:04:56;;;;;;;4.93;3.77;;;;;;;16.78;52.84;94541.03;5050229;28;20711;-71
2023/12/25 10:07:22;;;;;;;6.40;4.00;;;;;;;16.96;52.79;94559.53;5050330;28;20229;-70
2023/12/25 10:09:54;;;;;;;5.73;3.50;;;;;;;16.99;52.67;94559.19;5056806;28;20195;-71
2023/12/25 10:12:21;;;;;;;6.07;3.63;;;;;;;16.93;52.69;94552.16;5052855;28;20281;-75
2023/12/25 10:14:47;;;;;;;7.07;3.87;;;;;;;17.03;52.54;94567.38;5057138;28;20230;-73
2023/12/25 10:17:14;;;;;;;5.60;3.70;;;;;;;17.06;52.52;94548.94;5050505;28;20190;-75
2023/12/25 10:19:51;;;;;;;5.70;4.17;;;;;;;17.09;52.44;94556.31;5050245;28;20223;-78
2023/12/25 10:22:29;;;;;;;6.43;3.60;;;;;;;16.96;52.25;94530.31;5050381;28;20278;-77
2023/12/25 10:25:06;;;;;;;5.77;3.53;;;;;;;17.00;52.31;94531.56;5050383;28;20230;-76
2023/12/25 10:27:33;;;;;;;5.27;3.87;;;;;;;17.18;52.23;94557.81;5049870;28;20277;-74
2023/12/25 10:30:02;;;;;;;10.63;4.23;;;;;;;16.68;52.24;94466.41;5050127;28;20201;-75
2023/12/25 10:32:30;;;;;;;5.43;3.60;;;;;;;17.25;52.21;94544.97;5050011;28;20586;-71
2023/12/25 10:35:10;;;;;;;7.30;4.13;;;;;;;17.30;51.92;94537.47;5050108;28;20268;-73
2023/12/25 10:37:39;;;;;;;5.73;3.30;;;;;;;17.22;52.03;94514.31;5049799;28;20182;-72
2023/12/25 10:40:23;;;;;;;6.43;3.33;;;;;;;17.39;51.79;94526.03;5050279;28;20278;-72
2023/12/25 10:42:50;;;;;;;7.80;3.67;;;;;;;17.42;51.96;94525.66;5048706;28;20191;-73
2023/12/25 10:45:22;;;;;;;8.57;4.13;;;;;;;17.38;51.72;94500.38;5050124;28;20191;-76
2023/12/25 10:47:51;;;;;;;7.43;5.00;;;;;;;17.42;51.62;94496.44;5049773;28;20198;-71
2023/12/25 10:50:20;;;;;;;6.10;3.43;;;;;;;17.52;51.70;94509.84;5049550;28;20229;-73
2023/12/25 10:52:49;;;;;;;8.40;4.20;;;;;;;17.52;51.47;94499.50;5049847;28;20214;-69
2023/12/25 10:55:24;;;;;;;6.67;3.93;;;;;;;17.66;51.38;94514.16;5049749;28;20711;-71
2023/12/25 10:57:53;;;;;;;5.53;4.30;;;;;;;17.71;51.45;94508.44;5049774;28;20269;-68
2023/12/25 11:00:21;;;;;;;8.47;3.97;;;;;;;17.80;51.24;94517.69;5049391;28;20187;-72
2023/12/25 11:02:52;;;;;;;6.93;3.80;;;;;;;17.91;51.16;94513.78;5049828;28;20648;-75
2023/12/25 11:05:19;;;;;;;5.10;3.77;;;;;;;17.89;51.14;94493.28;5049395;28;20199;-70
2023/12/25 11:07:46;;;;;;;6.50;3.80;;;;;;;17.99;51.20;94514.47;5050024;28;20187;-70
2023/12/25 11:10:14;;;;;;;5.50;4.23;;;;;;;18.09;51.07;94527.09;5049444;28;20240;-69
2023/12/25 11:12:43;;;;;;;8.27;3.70;;;;;;;18.08;51.16;94506.56;5049256;28;20190;-73
2023/12/25 11:15:11;;;;;;;7.70;3.43;;;;;;;17.92;50.99;94481.75;5049303;28;20227;-75
2023/12/25 11:17:39;;;;;;;8.03;3.70;;;;;;;18.20;51.02;94525.75;5048664;28;20283;-74
2023/12/25 11:20:11;;;;;;;9.07;4.03;;;;;;;18.04;51.01;94493.19;5049309;28;20317;-77
2023/12/25 11:22:40;;;;;;;5.77;3.50;;;;;;;18.12;50.75;94505.19;5049159;28;20209;-75
2023/12/25 11:25:14;;;;;;;5.27;3.67;;;;;;;18.24;50.59;94514.84;5049173;28;20683;-71
2023/12/25 11:27:43;;;;;;;6.00;3.87;;;;;;;18.25;50.79;94511.25;5049295;28;20610;-68
2023/12/25 11:30:12;;;;;;;5.80;3.30;;;;;;;18.11;50.38;94496.63;5048983;28;20694;-70
2023/12/25 11:32:40;;;;;;;7.03;3.57;;;;;;;18.10;50.64;94476.94;5049384;28;20279;-75